createdAt,value
2019-04-05T00:00:17.238Z,6.50
2019-04-05T00:02:46.574Z,6.60
2019-04-05T00:05:16.057Z,6.50
2019-04-05T00:07:45.391Z,6.50
2019-04-05T00:10:15.027Z,6.50
2019-04-05T00:12:44.480Z,6.50
2019-04-05T00:15:16.174Z,6.50
2019-04-05T00:17:45.397Z,6.60
2019-04-05T00:20:15.622Z,6.50
2019-04-05T00:22:44.955Z,6.60
2019-04-05T00:25:15.461Z,6.50
2019-04-05T00:27:46.499Z,6.60
2019-04-05T00:30:15.998Z,6.50
2019-04-05T00:32:45.339Z,6.50
2019-04-05T00:35:14.839Z,6.50
2019-04-05T00:37:44.188Z,6.60
2019-04-05T00:40:14.471Z,6.50
2019-04-05T00:42:43.798Z,6.60
2019-04-05T00:45:13.326Z,6.60
2019-04-05T00:47:42.670Z,6.60
2019-04-05T00:50:13.338Z,6.60
2019-04-05T00:52:42.731Z,6.60
2019-04-05T00:55:12.320Z,6.60
2019-04-05T00:57:41.667Z,6.60
2019-04-05T01:00:12.859Z,6.60
2019-04-05T01:02:42.178Z,6.60
2019-04-05T01:05:11.515Z,6.60
2019-04-05T01:07:40.949Z,6.60
2019-04-05T01:10:10.738Z,6.60
2019-04-05T01:12:40.338Z,6.60
2019-04-05T01:15:11.450Z,6.60
2019-04-05T01:17:41.026Z,6.60
2019-04-05T01:20:10.801Z,6.60
2019-04-05T01:22:42.801Z,6.60
2019-04-05T01:25:12.171Z,6.60
2019-04-05T01:27:41.920Z,6.60
2019-04-05T01:30:13.874Z,6.60
2019-04-05T01:32:43.215Z,6.60
2019-04-05T01:35:12.630Z,6.50
2019-04-05T01:37:42.145Z,6.50
2019-04-05T01:40:12.212Z,6.60
2019-04-05T01:42:42.566Z,6.60
2019-04-05T01:45:12.065Z,6.50
2019-04-05T01:47:41.469Z,6.50
2019-04-05T01:50:11.538Z,6.60
2019-04-05T01:52:42.556Z,6.60
2019-04-05T01:55:12.074Z,6.60
2019-04-05T01:57:41.405Z,6.60
2019-04-05T02:00:12.650Z,6.50
2019-04-05T02:02:42.215Z,6.50
2019-04-05T02:05:23.964Z,6.40
2019-04-05T02:07:53.264Z,6.40
2019-04-05T02:10:22.775Z,6.40
2019-04-05T02:12:52.076Z,6.40
2019-04-05T02:15:27.737Z,6.40
2019-04-05T02:17:57.581Z,6.30
2019-04-05T02:20:28.096Z,6.40
2019-04-05T02:22:57.683Z,6.40
2019-04-05T02:25:28.606Z,6.30
2019-04-05T02:27:57.936Z,6.40
2019-04-05T02:30:27.428Z,6.40
2019-04-05T02:32:56.807Z,6.40
2019-04-05T02:35:26.184Z,6.40
2019-04-05T02:37:55.581Z,6.40
2019-04-05T02:40:26.769Z,6.40
2019-04-05T02:42:59.095Z,6.40
2019-04-05T02:45:31.485Z,6.40
2019-04-05T02:48:03.861Z,6.40
2019-04-05T02:50:36.363Z,6.40
2019-04-05T02:53:08.758Z,6.40
2019-04-05T02:55:39.676Z,6.40
2019-04-05T02:58:10.960Z,6.40
2019-04-05T03:00:40.649Z,6.40
2019-04-05T03:03:10.529Z,6.40
2019-04-05T03:05:40.324Z,6.40
2019-04-05T03:08:09.801Z,6.40
2019-04-05T03:11:10.808Z,6.40
2019-04-05T03:13:45.961Z,6.40
2019-04-05T03:16:19.405Z,6.50
2019-04-05T03:19:05.326Z,6.40
2019-04-05T03:21:37.926Z,6.40
2019-04-05T03:24:11.465Z,6.40
2019-04-05T03:26:43.864Z,6.50
2019-04-05T03:29:13.236Z,6.50
2019-04-05T03:31:42.579Z,6.50
2019-04-05T03:34:12.818Z,6.40
2019-04-05T03:36:42.436Z,6.40
2019-04-05T03:39:12.005Z,6.50
2019-04-05T03:41:41.502Z,6.50
2019-04-05T03:44:11.173Z,6.50
2019-04-05T03:46:55.472Z,6.50
2019-04-05T03:49:11.571Z,6.50
2019-04-05T03:51:40.888Z,6.50
2019-04-05T03:54:10.269Z,6.50
2019-04-05T03:56:39.598Z,6.50
2019-04-05T03:59:08.901Z,6.50
2019-04-05T04:01:38.223Z,6.50
2019-04-05T04:04:08.494Z,6.50
2019-04-05T04:06:37.835Z,6.50
2019-04-05T04:09:07.213Z,6.50
2019-04-05T04:11:36.532Z,6.50
2019-04-05T04:14:10.655Z,6.50
2019-04-05T04:16:40.040Z,6.50
2019-04-05T04:19:09.360Z,6.50
2019-04-05T04:21:41.753Z,6.50
2019-04-05T04:24:11.341Z,6.50
2019-04-05T04:26:41.622Z,6.50
2019-04-05T04:29:11.059Z,6.50
2019-04-05T04:31:40.391Z,6.60
2019-04-05T04:34:09.839Z,6.50
2019-04-05T04:36:39.539Z,6.50
2019-04-05T04:39:08.845Z,6.50
2019-04-05T04:41:38.303Z,6.50
2019-04-05T04:44:07.683Z,6.50
2019-04-05T04:46:37.335Z,6.50
2019-04-05T04:49:06.646Z,6.50
2019-04-05T04:51:36.317Z,6.60
2019-04-05T04:54:05.784Z,6.60
2019-04-05T04:56:35.468Z,6.60
2019-04-05T04:59:04.861Z,6.60
2019-04-05T05:01:34.254Z,6.60
2019-04-05T05:04:03.593Z,6.60
2019-04-05T05:06:33.059Z,6.50
2019-04-05T05:09:02.423Z,6.50
2019-04-05T05:11:31.839Z,6.60
2019-04-05T05:14:01.585Z,6.60
2019-04-05T05:16:31.177Z,6.60
2019-04-05T05:19:00.925Z,6.60
2019-04-05T05:21:30.503Z,6.60
2019-04-05T05:23:59.887Z,6.60
2019-04-05T05:26:29.480Z,6.60
2019-04-05T05:28:59.414Z,6.60
2019-04-05T05:31:28.995Z,6.60
2019-04-05T05:33:58.319Z,6.60
2019-04-05T05:36:27.637Z,6.60
2019-04-05T05:38:56.953Z,6.60
2019-04-05T05:41:26.255Z,6.60
2019-04-05T05:43:55.644Z,6.60
2019-04-05T05:46:24.961Z,6.60
2019-04-05T05:48:54.375Z,6.60
2019-04-05T05:51:23.816Z,6.60
2019-04-05T05:53:53.210Z,6.60
2019-04-05T05:56:22.513Z,6.60
2019-04-05T05:58:55.332Z,6.60
2019-04-05T06:01:22.840Z,6.60
2019-04-05T06:03:52.156Z,6.60
2019-04-05T06:06:21.465Z,6.70
2019-04-05T06:08:50.786Z,6.60
2019-04-05T06:11:20.105Z,6.60
2019-04-05T06:13:49.414Z,6.60
2019-04-05T06:16:18.750Z,6.60
2019-04-05T06:18:48.675Z,6.60
2019-04-05T06:21:18.064Z,6.60
2019-04-05T06:23:47.386Z,6.60
2019-04-05T06:26:16.693Z,6.60
2019-04-05T06:28:46.131Z,6.60
2019-04-05T06:31:15.596Z,6.60
2019-04-05T06:33:44.912Z,6.60
2019-04-05T06:36:14.227Z,6.60
2019-04-05T06:38:43.545Z,6.60
2019-04-05T06:41:12.919Z,6.60
2019-04-05T06:43:42.299Z,6.60
2019-04-05T06:46:11.604Z,6.60
2019-04-05T06:48:41.030Z,6.60
2019-04-05T06:51:10.403Z,6.70
2019-04-05T06:53:39.717Z,6.70
2019-04-05T06:56:09.029Z,6.70
2019-04-05T06:58:40.275Z,6.70
2019-04-05T07:01:09.583Z,6.70
2019-04-05T07:03:40.816Z,6.70
2019-04-05T07:06:10.131Z,6.70
2019-04-05T07:08:39.444Z,6.60
2019-04-05T07:11:08.753Z,6.70
2019-04-05T07:13:38.068Z,6.70
2019-04-05T07:16:07.550Z,6.70
2019-04-05T07:18:36.953Z,6.70
2019-04-05T07:21:06.251Z,6.70
2019-04-05T07:23:35.577Z,6.70
2019-04-05T07:26:04.892Z,6.60
2019-04-05T07:28:34.272Z,6.60
2019-04-05T07:31:03.610Z,6.70
2019-04-05T07:33:33.848Z,6.60
2019-04-05T07:36:03.679Z,6.60
2019-04-05T07:38:34.113Z,6.60
2019-04-05T07:41:03.588Z,6.60
2019-04-05T07:43:32.931Z,6.60
2019-04-05T07:46:02.312Z,6.70
2019-04-05T07:48:43.831Z,6.60
2019-04-05T07:51:02.853Z,6.60
2019-04-05T07:53:33.863Z,6.60
2019-04-05T07:56:03.303Z,6.60
2019-04-05T07:58:32.767Z,6.60
2019-04-05T08:01:05.088Z,6.60
2019-04-05T08:03:34.509Z,6.70
2019-04-05T08:06:04.029Z,6.70
2019-04-05T08:08:36.450Z,6.70
2019-04-05T08:11:06.024Z,6.70
2019-04-05T08:13:38.299Z,6.70
2019-04-05T08:16:08.655Z,6.70
2019-04-05T08:18:38.034Z,6.70
2019-04-05T08:21:07.382Z,6.70
2019-04-05T08:23:36.774Z,6.80
2019-04-05T08:26:06.343Z,6.80
2019-04-05T08:28:35.664Z,6.80
2019-04-05T08:31:05.080Z,6.80
2019-04-05T08:33:36.374Z,6.80
2019-04-05T08:36:07.027Z,6.90
2019-04-05T08:38:39.421Z,6.90
2019-04-05T08:41:07.429Z,6.90
2019-04-05T08:43:36.808Z,6.90
2019-04-05T08:46:06.193Z,6.90
2019-04-05T08:48:35.506Z,6.90
2019-04-05T08:51:06.745Z,6.90
2019-04-05T08:53:36.052Z,6.90
2019-04-05T08:56:05.486Z,6.90
2019-04-05T08:58:34.994Z,6.90
2019-04-05T09:01:04.382Z,6.90
2019-04-05T09:03:33.739Z,7.00
2019-04-05T09:06:03.117Z,7.00
2019-04-05T09:08:32.558Z,7.00
2019-04-05T09:11:02.250Z,7.00
2019-04-05T09:13:31.619Z,7.00
2019-04-05T09:16:01.099Z,7.00
2019-04-05T09:18:30.457Z,7.10
2019-04-05T09:20:59.810Z,7.00
2019-04-05T09:23:29.120Z,7.10
2019-04-05T09:25:58.436Z,7.10
2019-04-05T09:28:27.745Z,7.10
2019-04-05T09:30:57.064Z,7.10
2019-04-05T09:33:26.390Z,7.10
2019-04-05T09:35:55.713Z,7.10
2019-04-05T09:38:25.032Z,7.00
2019-04-05T09:40:54.363Z,7.00
2019-04-05T09:43:23.684Z,7.10
2019-04-05T09:45:52.996Z,7.20
2019-04-05T09:48:22.308Z,7.20
2019-04-05T09:50:51.643Z,7.20
2019-04-05T09:53:20.957Z,7.20
2019-04-05T09:55:50.266Z,7.20
2019-04-05T09:58:19.578Z,7.20
2019-04-05T10:00:48.894Z,7.20
2019-04-05T10:03:18.282Z,7.20
2019-04-05T10:05:47.595Z,7.20
2019-04-05T10:08:16.909Z,7.20
2019-04-05T10:10:46.224Z,7.20
2019-04-05T10:13:15.785Z,7.30
2019-04-05T10:15:45.117Z,7.30
2019-04-05T10:18:14.494Z,7.30
2019-04-05T10:20:45.722Z,7.30
2019-04-05T10:23:15.033Z,7.30
2019-04-05T10:25:44.348Z,7.40
2019-04-05T10:28:13.664Z,7.40
2019-04-05T10:30:42.978Z,7.50
2019-04-05T10:33:12.285Z,7.40
2019-04-05T10:35:41.609Z,7.40
2019-04-05T10:38:10.916Z,7.40
2019-04-05T10:40:40.235Z,7.50
2019-04-05T10:43:09.619Z,7.60
2019-04-05T10:45:38.945Z,7.60
2019-04-05T10:48:08.245Z,7.60
2019-04-05T10:50:37.564Z,7.60
2019-04-05T10:53:06.878Z,7.70
2019-04-05T10:55:36.200Z,7.70
2019-04-05T10:58:05.600Z,7.80
2019-04-05T11:00:35.112Z,7.80
2019-04-05T11:03:04.422Z,7.80
2019-04-05T11:05:36.812Z,7.80
2019-04-05T11:08:06.205Z,7.90
2019-04-05T11:10:36.464Z,7.80
2019-04-05T11:13:05.828Z,7.80
2019-04-05T11:15:35.307Z,7.80
2019-04-05T11:18:04.839Z,7.80
2019-04-05T11:20:34.286Z,7.70
2019-04-05T11:23:03.673Z,7.70
2019-04-05T11:25:32.999Z,7.60
2019-04-05T11:28:02.318Z,7.60
2019-04-05T11:30:43.686Z,7.70
2019-04-05T11:33:13.143Z,7.70
2019-04-05T11:35:42.738Z,7.70
2019-04-05T11:38:13.561Z,7.70
2019-04-05T11:40:43.553Z,7.70
2019-04-05T11:43:12.861Z,7.80
2019-04-05T11:45:42.629Z,7.80
2019-04-05T11:48:12.296Z,7.80
2019-04-05T11:50:41.624Z,7.80
2019-04-05T11:53:11.976Z,7.90
2019-04-05T11:55:41.293Z,8.00
2019-04-05T11:58:10.630Z,8.10
2019-04-05T12:00:50.532Z,8.10
2019-04-05T12:03:30.861Z,8.10
2019-04-05T12:06:00.259Z,8.10
2019-04-05T12:08:29.570Z,8.20
2019-04-05T12:10:58.900Z,8.20
2019-04-05T12:13:28.204Z,8.10
2019-04-05T12:15:58.337Z,8.00
2019-04-05T12:18:27.821Z,8.10
2019-04-05T12:21:00.353Z,8.10
2019-04-05T12:23:28.150Z,8.10
2019-04-05T12:25:57.479Z,8.10
2019-04-05T12:28:26.788Z,8.10
2019-04-05T12:30:56.099Z,8.20
2019-04-05T12:33:25.426Z,8.20
2019-04-05T12:35:56.681Z,8.20
2019-04-05T12:38:33.126Z,8.30
2019-04-05T12:41:03.893Z,8.40
2019-04-05T12:43:33.450Z,8.40
2019-04-05T12:46:27.630Z,8.30
2019-04-05T12:49:00.020Z,8.40
2019-04-05T12:51:34.749Z,8.40
2019-04-05T12:54:07.034Z,8.40
2019-04-05T12:56:36.529Z,8.30
2019-04-05T12:59:10.601Z,8.20
2019-04-05T13:01:43.528Z,8.10
2019-04-05T13:04:13.194Z,8.20
2019-04-05T13:06:42.627Z,8.20
2019-04-05T13:09:13.027Z,8.10
2019-04-05T13:11:43.920Z,8.10
2019-04-05T13:14:13.253Z,8.10
2019-04-05T13:16:42.602Z,8.10
2019-04-05T13:19:11.914Z,8.20
2019-04-05T13:21:41.337Z,8.20
2019-04-05T13:24:10.714Z,8.20
2019-04-05T13:26:42.065Z,8.20
2019-04-05T13:29:11.058Z,8.20
2019-04-05T13:31:42.053Z,8.20
2019-04-05T13:34:11.395Z,8.20
2019-04-05T13:36:40.749Z,8.20
2019-04-05T13:39:10.077Z,8.20
2019-04-05T13:41:39.406Z,8.20
2019-04-05T13:44:08.732Z,8.10
2019-04-05T13:46:41.307Z,8.10
2019-04-05T13:49:10.998Z,8.20
2019-04-05T13:51:42.104Z,8.20
2019-04-05T13:54:12.196Z,8.10
2019-04-05T13:56:41.918Z,8.10
2019-04-05T13:59:11.441Z,8.20
2019-04-05T14:01:42.327Z,8.20
2019-04-05T14:04:12.622Z,8.30
2019-04-05T14:06:41.937Z,8.30
2019-04-05T14:09:11.297Z,8.30
2019-04-05T14:11:42.160Z,8.20
2019-04-05T14:14:12.166Z,8.20
2019-04-05T14:16:43.043Z,8.20
2019-04-05T14:19:18.213Z,8.20
2019-04-05T14:21:47.824Z,8.20
2019-04-05T14:24:17.481Z,8.20
2019-04-05T14:26:46.820Z,8.20
2019-04-05T14:29:16.141Z,8.20
2019-04-05T14:31:45.447Z,8.20
2019-04-05T14:34:14.821Z,8.20
2019-04-05T14:36:47.104Z,8.20
2019-04-05T14:39:16.569Z,8.20
2019-04-05T14:41:47.418Z,8.20
2019-04-05T14:44:16.774Z,8.20
2019-04-05T14:46:46.453Z,8.30
2019-04-05T14:49:16.274Z,8.30
2019-04-05T14:51:53.759Z,8.30
2019-04-05T14:54:17.289Z,8.30
2019-04-05T14:56:46.875Z,8.30
2019-04-05T14:59:17.406Z,8.30
2019-04-05T15:01:47.549Z,8.40
2019-04-05T15:04:18.998Z,8.40
2019-04-05T15:06:48.634Z,8.40
2019-04-05T15:09:21.818Z,8.40
2019-04-05T15:11:50.453Z,8.30
2019-04-05T15:14:19.781Z,8.30
2019-04-05T15:16:49.220Z,8.30
2019-04-05T15:19:19.087Z,8.30
2019-04-05T15:21:48.398Z,8.40
2019-04-05T15:24:17.735Z,8.40
2019-04-05T15:26:47.094Z,8.40
2019-04-05T15:29:16.495Z,8.40
2019-04-05T15:31:45.881Z,8.40
2019-04-05T15:34:15.219Z,8.30
2019-04-05T15:36:44.541Z,8.40
2019-04-05T15:39:15.507Z,8.40
2019-04-05T15:41:49.831Z,8.40
2019-04-05T15:44:19.317Z,8.40
2019-04-05T15:50:56.594Z,8.30
2019-04-05T15:53:45.022Z,8.30
2019-04-05T15:56:41.061Z,8.30
2019-04-05T15:59:10.683Z,8.20
2019-04-05T16:01:40.306Z,8.20
2019-04-05T16:04:09.778Z,8.10
2019-04-05T16:06:39.330Z,8.10
2019-04-05T16:09:10.688Z,8.00
2019-04-05T16:11:40.073Z,8.00
2019-04-05T16:14:09.474Z,7.90
2019-04-05T16:16:38.781Z,7.90
2019-04-05T16:19:09.069Z,7.90
2019-04-05T16:21:38.384Z,7.90
2019-04-05T16:24:07.768Z,7.90
2019-04-05T16:26:37.064Z,7.90
2019-04-05T16:29:08.121Z,7.90
2019-04-05T16:31:41.235Z,8.00
2019-04-05T16:34:11.697Z,8.00
2019-04-05T16:36:41.033Z,8.00
2019-04-05T16:39:13.611Z,8.00
2019-04-05T16:41:42.958Z,8.00
2019-04-05T16:44:12.296Z,8.00
2019-04-05T16:46:41.636Z,7.90
2019-04-05T16:49:11.965Z,7.90
2019-04-05T16:51:41.310Z,7.90
2019-04-05T16:54:10.636Z,7.90
2019-04-05T16:56:39.948Z,7.90
2019-04-05T16:59:09.307Z,7.90
2019-04-05T17:01:38.607Z,7.90
2019-04-05T17:04:07.935Z,7.80
2019-04-05T17:06:37.369Z,7.90
2019-04-05T17:09:08.929Z,7.80
2019-04-05T17:11:38.404Z,7.90
2019-04-05T17:14:07.741Z,7.80
2019-04-05T17:16:37.152Z,7.80
2019-04-05T17:19:06.885Z,7.90
2019-04-05T17:21:38.778Z,7.80
2019-04-05T17:24:08.195Z,7.90
2019-04-05T17:26:37.586Z,7.80
2019-04-05T17:29:06.959Z,7.80
2019-04-05T17:31:36.269Z,7.90
2019-04-05T17:34:05.586Z,7.90
2019-04-05T17:36:34.899Z,7.90
2019-04-05T17:39:06.664Z,7.80
2019-04-05T17:41:36.064Z,7.90
2019-04-05T17:44:05.364Z,7.80
2019-04-05T17:46:34.679Z,7.80
2019-04-05T17:49:04.252Z,7.80
2019-04-05T17:51:33.582Z,7.80
2019-04-05T17:54:02.923Z,7.80
2019-04-05T17:56:32.439Z,7.80
2019-04-05T17:59:02.600Z,7.80
2019-04-05T18:01:32.149Z,7.80
2019-04-05T18:04:01.659Z,7.80
2019-04-05T18:06:31.068Z,7.80
2019-04-05T18:09:00.415Z,7.80
2019-04-05T18:11:30.312Z,7.80
2019-04-05T18:13:59.625Z,7.80
2019-04-05T18:17:18.353Z,7.80
2019-04-05T18:30:07.324Z,7.80
2019-04-05T18:32:40.893Z,7.80
2019-04-05T18:35:09.248Z,7.80
2019-04-05T18:37:40.342Z,7.80
2019-04-05T18:42:49.675Z,7.80
2019-04-05T18:45:19.995Z,7.80
2019-04-05T18:47:49.530Z,7.80
2019-04-05T18:50:18.965Z,7.80
2019-04-05T18:52:48.409Z,7.80
2019-04-05T18:55:20.812Z,7.80
2019-04-05T18:57:50.185Z,7.80
2019-04-05T19:00:21.139Z,7.80
2019-04-05T19:02:54.455Z,7.80
2019-04-05T19:05:23.790Z,7.80
2019-04-05T19:07:57.254Z,7.80
2019-04-05T19:10:36.543Z,7.80
2019-04-05T19:12:59.390Z,7.80
2019-04-05T19:15:31.532Z,7.80
2019-04-05T19:18:00.890Z,7.80
2019-04-05T19:20:31.273Z,7.80
2019-04-05T19:23:01.568Z,7.80
2019-04-05T19:25:31.940Z,7.90
2019-04-05T19:28:01.467Z,7.90
2019-04-05T19:50:40.122Z,7.80
2019-04-05T19:53:09.504Z,7.80
2019-04-05T19:55:38.850Z,7.80
2019-04-05T19:58:08.173Z,7.80
2019-04-05T20:00:37.554Z,7.80
2019-04-05T20:03:06.988Z,7.80
2019-04-05T20:05:36.356Z,7.80
2019-04-05T20:08:05.727Z,7.80
2019-04-05T20:10:35.041Z,7.80
2019-04-05T20:13:04.369Z,7.80
2019-04-05T20:15:34.904Z,7.80
2019-04-05T20:18:04.299Z,7.80
2019-04-05T20:20:33.715Z,7.80
2019-04-05T20:23:03.264Z,7.80
2019-04-05T20:25:32.590Z,7.80
2019-04-05T20:28:01.986Z,7.80
2019-04-05T20:30:31.307Z,7.80
2019-04-05T20:33:00.664Z,7.80
2019-04-05T20:35:30.047Z,7.90
2019-04-05T20:37:59.374Z,7.90
2019-04-05T20:40:28.720Z,7.90
2019-04-05T20:42:59.812Z,7.80
2019-04-05T20:45:29.133Z,7.80
2019-04-05T20:48:01.081Z,7.80
2019-04-05T20:50:32.048Z,7.90
2019-04-05T20:53:01.395Z,7.90
2019-04-05T20:55:37.258Z,7.90
2019-04-05T20:58:06.128Z,7.80
2019-04-05T21:00:37.162Z,7.80
2019-04-05T21:03:06.527Z,7.80
2019-04-05T21:05:37.434Z,7.80
2019-04-05T21:08:06.788Z,7.80
2019-04-05T21:10:36.105Z,7.80
2019-04-05T21:13:24.852Z,7.80
2019-04-05T21:15:54.352Z,7.90
2019-04-05T21:18:23.701Z,7.80
2019-04-05T21:20:53.038Z,7.80
2019-04-05T21:23:29.703Z,7.80
2019-04-05T21:25:58.944Z,7.90
2019-04-05T21:28:32.922Z,7.90
2019-04-05T21:31:02.275Z,7.80
2019-04-05T21:33:31.688Z,7.80
2019-04-05T21:36:01.022Z,7.80
2019-04-05T21:38:33.148Z,7.70
2019-04-05T21:41:02.536Z,7.70
2019-04-05T21:43:31.897Z,7.70
2019-04-05T21:46:02.289Z,7.70
2019-04-05T21:48:31.729Z,7.80
2019-04-05T21:51:03.646Z,7.70
2019-04-05T21:53:32.976Z,7.70
2019-04-05T21:56:02.388Z,7.80
2019-04-05T21:58:31.721Z,7.70
2019-04-05T22:01:02.774Z,7.70
2019-04-05T22:03:33.755Z,7.70
2019-04-05T22:06:03.120Z,7.70
2019-04-05T22:08:33.426Z,7.70
2019-04-05T22:11:04.352Z,7.70
2019-04-05T22:13:33.677Z,7.70
2019-04-05T22:16:03.165Z,7.80
2019-04-05T22:18:32.480Z,7.80
2019-04-05T22:21:01.790Z,7.80
2019-04-05T22:23:31.105Z,7.80
2019-04-05T22:26:00.423Z,7.80
2019-04-05T22:28:29.745Z,7.80
2019-04-05T22:30:59.064Z,7.80
2019-04-05T22:33:28.384Z,7.70
2019-04-05T22:35:57.696Z,7.70
2019-04-05T22:38:27.023Z,7.70
2019-04-05T22:40:56.346Z,7.70
2019-04-05T22:43:25.667Z,7.70
2019-04-05T22:45:54.976Z,7.70
2019-04-05T22:48:24.301Z,7.70
2019-04-05T22:50:53.612Z,7.70
2019-04-05T22:53:22.939Z,7.70
2019-04-05T22:55:52.259Z,7.60
2019-04-05T22:58:21.581Z,7.70
2019-04-05T23:00:50.898Z,7.60
2019-04-05T23:03:20.257Z,7.70
2019-04-05T23:05:49.615Z,7.60
2019-04-05T23:08:19.017Z,7.60
2019-04-05T23:10:48.352Z,7.60
2019-04-05T23:13:17.693Z,7.60
2019-04-05T23:15:47.976Z,7.60
2019-04-05T23:18:17.301Z,7.70
2019-04-05T23:20:46.695Z,7.70
2019-04-05T23:23:16.075Z,7.70
2019-04-05T23:25:45.417Z,7.70
2019-04-05T23:28:14.720Z,7.70
2019-04-05T23:30:44.126Z,7.70
2019-04-05T23:33:14.345Z,7.70
2019-04-05T23:35:43.656Z,7.70
2019-04-05T23:38:12.976Z,7.70
2019-04-05T23:40:42.305Z,7.70
2019-04-05T23:43:11.618Z,7.80
2019-04-05T23:45:41.720Z,7.70
2019-04-05T23:48:11.038Z,7.80
2019-04-05T23:50:40.370Z,7.80
2019-04-05T23:53:09.683Z,7.80
2019-04-05T23:55:39.008Z,7.80
2019-04-05T23:58:08.320Z,7.80
